Terminal Aerodrome Forecast
Issued by NWS Omaha/Valley, NE

Home | Current Version | Previous Version | Graphics & Text | Print | Product List | Glossary On
Versions: 1 2 3 4 5 6 7 8 9 10 11 12 13
000
FTUS43 KOAX 300537 AAA
TAFOFK
TAF AMD
KOFK 300537Z 3006/0106 31015G24KT P6SM OVC025
      TEMPO 3006/3010 -SN OVC015
     FM301000 30017G25KT P6SM -SN OVC020
     FM301200 31017G23KT P6SM -SN OVC020
      TEMPO 3012/3016 2SM -SN OVC012
     FM302000 31020G28KT P6SM OVC020
     FM010500 31012KT P6SM BKN035=

USA.gov is the U.S. government's official web portal to all federal, state and local government web resources and services.